sensor_id;sensor_type;location;lat;lon;timestamp;P1;durP1;ratioP1;P2;durP2;ratioP2
16472;SDS011;8347;52.486;13.432;2023-02-11T00:02:38;69.63;;;30.85;;
16472;SDS011;8347;52.486;13.432;2023-02-11T00:05:24;71.07;;;30.42;;
16472;SDS011;8347;52.486;13.432;2023-02-11T00:08:11;60.63;;;28.77;;
16472;SDS011;8347;52.486;13.432;2023-02-11T00:11:01;59.97;;;28.23;;
16472;SDS011;8347;52.486;13.432;2023-02-11T00:13:48;51.90;;;26.17;;
16472;SDS011;8347;52.486;13.432;2023-02-11T00:16:34;53.22;;;26.60;;
16472;SDS011;8347;52.486;13.432;2023-02-11T00:19:21;59.95;;;26.35;;
16472;SDS011;8347;52.486;13.432;2023-02-11T00:22:07;58.20;;;27.52;;
16472;SDS011;8347;52.486;13.432;2023-02-11T00:24:54;56.63;;;25.20;;
16472;SDS011;8347;52.486;13.432;2023-02-11T00:27:41;55.88;;;26.52;;
16472;SDS011;8347;52.486;13.432;2023-02-11T00:30:28;64.13;;;28.10;;
16472;SDS011;8347;52.486;13.432;2023-02-11T00:33:14;57.53;;;28.90;;
16472;SDS011;8347;52.486;13.432;2023-02-11T00:36:04;57.50;;;27.48;;
16472;SDS011;8347;52.486;13.432;2023-02-11T00:38:52;60.92;;;28.60;;
16472;SDS011;8347;52.486;13.432;2023-02-11T00:41:39;60.15;;;27.70;;
16472;SDS011;8347;52.486;13.432;2023-02-11T00:44:26;59.92;;;28.23;;
16472;SDS011;8347;52.486;13.432;2023-02-11T00:47:13;57.53;;;25.83;;
16472;SDS011;8347;52.486;13.432;2023-02-11T00:49:59;60.20;;;27.77;;
16472;SDS011;8347;52.486;13.432;2023-02-11T00:52:47;56.88;;;26.52;;
16472;SDS011;8347;52.486;13.432;2023-02-11T00:55:33;55.92;;;25.42;;
16472;SDS011;8347;52.486;13.432;2023-02-11T00:58:20;52.47;;;25.40;;
16472;SDS011;8347;52.486;13.432;2023-02-11T01:01:07;56.30;;;26.02;;
16472;SDS011;8347;52.486;13.432;2023-02-11T01:03:54;61.35;;;28.55;;
16472;SDS011;8347;52.486;13.432;2023-02-11T01:06:42;53.45;;;26.17;;
16472;SDS011;8347;52.486;13.432;2023-02-11T01:09:28;53.25;;;25.15;;
16472;SDS011;8347;52.486;13.432;2023-02-11T01:12:15;58.15;;;26.92;;
16472;SDS011;8347;52.486;13.432;2023-02-11T01:15:02;50.92;;;25.15;;
16472;SDS011;8347;52.486;13.432;2023-02-11T01:17:49;61.88;;;26.67;;
16472;SDS011;8347;52.486;13.432;2023-02-11T01:20:37;58.00;;;26.83;;
16472;SDS011;8347;52.486;13.432;2023-02-11T01:23:23;57.72;;;26.73;;
16472;SDS011;8347;52.486;13.432;2023-02-11T01:26:10;56.72;;;27.55;;
16472;SDS011;8347;52.486;13.432;2023-02-11T01:28:57;55.65;;;25.67;;
16472;SDS011;8347;52.486;13.432;2023-02-11T01:31:46;50.72;;;25.50;;
16472;SDS011;8347;52.486;13.432;2023-02-11T01:34:33;52.58;;;25.65;;
16472;SDS011;8347;52.486;13.432;2023-02-11T01:37:19;55.22;;;24.33;;
16472;SDS011;8347;52.486;13.432;2023-02-11T01:40:10;55.60;;;26.63;;
16472;SDS011;8347;52.486;13.432;2023-02-11T01:42:58;55.15;;;25.17;;
16472;SDS011;8347;52.486;13.432;2023-02-11T01:48:33;51.15;;;23.27;;
16472;SDS011;8347;52.486;13.432;2023-02-11T01:54:24;57.13;;;25.65;;
16472;SDS011;8347;52.486;13.432;2023-02-11T01:57:31;56.70;;;25.85;;
16472;SDS011;8347;52.486;13.432;2023-02-11T02:00:20;50.45;;;25.08;;
16472;SDS011;8347;52.486;13.432;2023-02-11T02:03:11;52.22;;;24.35;;
16472;SDS011;8347;52.486;13.432;2023-02-11T02:08:54;46.33;;;22.90;;
16472;SDS011;8347;52.486;13.432;2023-02-11T02:11:48;51.42;;;26.15;;
16472;SDS011;8347;52.486;13.432;2023-02-11T02:14:39;58.13;;;26.17;;
16472;SDS011;8347;52.486;13.432;2023-02-11T02:17:28;48.45;;;23.60;;
16472;SDS011;8347;52.486;13.432;2023-02-11T02:23:24;44.60;;;23.77;;
16472;SDS011;8347;52.486;13.432;2023-02-11T02:26:37;51.47;;;25.88;;
16472;SDS011;8347;52.486;13.432;2023-02-11T02:36:00;51.33;;;25.55;;
16472;SDS011;8347;52.486;13.432;2023-02-11T02:39:04;58.47;;;26.15;;
16472;SDS011;8347;52.486;13.432;2023-02-11T02:41:51;48.55;;;23.90;;
16472;SDS011;8347;52.486;13.432;2023-02-11T02:44:39;53.60;;;26.27;;
16472;SDS011;8347;52.486;13.432;2023-02-11T02:47:25;48.80;;;25.30;;
16472;SDS011;8347;52.486;13.432;2023-02-11T02:50:12;54.90;;;26.42;;
16472;SDS011;8347;52.486;13.432;2023-02-11T02:53:06;57.13;;;26.08;;
16472;SDS011;8347;52.486;13.432;2023-02-11T02:55:58;52.78;;;25.67;;
16472;SDS011;8347;52.486;13.432;2023-02-11T02:59:03;49.42;;;24.30;;
16472;SDS011;8347;52.486;13.432;2023-02-11T03:02:02;54.72;;;26.77;;
16472;SDS011;8347;52.486;13.432;2023-02-11T03:05:02;55.75;;;26.98;;
16472;SDS011;8347;52.486;13.432;2023-02-11T03:07:55;50.05;;;26.25;;
16472;SDS011;8347;52.486;13.432;2023-02-11T03:10:44;54.33;;;25.80;;
16472;SDS011;8347;52.486;13.432;2023-02-11T03:13:34;52.08;;;26.95;;
16472;SDS011;8347;52.486;13.432;2023-02-11T03:16:23;55.15;;;27.58;;
16472;SDS011;8347;52.486;13.432;2023-02-11T03:19:21;54.33;;;26.85;;
16472;SDS011;8347;52.486;13.432;2023-02-11T03:22:14;62.55;;;28.23;;
16472;SDS011;8347;52.486;13.432;2023-02-11T03:25:05;54.17;;;27.58;;
16472;SDS011;8347;52.486;13.432;2023-02-11T03:27:53;62.95;;;27.02;;
16472;SDS011;8347;52.486;13.432;2023-02-11T03:30:47;55.90;;;26.63;;
16472;SDS011;8347;52.486;13.432;2023-02-11T03:33:37;56.67;;;26.27;;
16472;SDS011;8347;52.486;13.432;2023-02-11T03:36:49;52.95;;;25.90;;
16472;SDS011;8347;52.486;13.432;2023-02-11T03:39:38;58.22;;;28.92;;
16472;SDS011;8347;52.486;13.432;2023-02-11T03:42:32;63.17;;;29.13;;
16472;SDS011;8347;52.486;13.432;2023-02-11T03:45:20;56.17;;;27.38;;
16472;SDS011;8347;52.486;13.432;2023-02-11T03:48:10;54.97;;;27.83;;
16472;SDS011;8347;52.486;13.432;2023-02-11T03:50:58;57.08;;;26.60;;
16472;SDS011;8347;52.486;13.432;2023-02-11T03:53:47;58.92;;;28.55;;
16472;SDS011;8347;52.486;13.432;2023-02-11T03:56:38;55.05;;;28.58;;
16472;SDS011;8347;52.486;13.432;2023-02-11T03:59:26;53.00;;;26.50;;
16472;SDS011;8347;52.486;13.432;2023-02-11T04:02:13;62.38;;;31.10;;
16472;SDS011;8347;52.486;13.432;2023-02-11T04:05:00;56.17;;;27.55;;
16472;SDS011;8347;52.486;13.432;2023-02-11T04:07:46;55.08;;;27.42;;
16472;SDS011;8347;52.486;13.432;2023-02-11T04:10:33;60.47;;;29.15;;
16472;SDS011;8347;52.486;13.432;2023-02-11T04:13:19;61.08;;;29.95;;
16472;SDS011;8347;52.486;13.432;2023-02-11T04:16:06;60.13;;;29.33;;
16472;SDS011;8347;52.486;13.432;2023-02-11T04:18:52;67.00;;;29.55;;
16472;SDS011;8347;52.486;13.432;2023-02-11T04:21:39;58.70;;;28.65;;
16472;SDS011;8347;52.486;13.432;2023-02-11T04:24:25;59.50;;;28.65;;
16472;SDS011;8347;52.486;13.432;2023-02-11T04:27:12;61.03;;;29.15;;
16472;SDS011;8347;52.486;13.432;2023-02-11T04:29:58;59.33;;;30.10;;
16472;SDS011;8347;52.486;13.432;2023-02-11T04:32:45;67.95;;;30.48;;
16472;SDS011;8347;52.486;13.432;2023-02-11T04:35:31;60.97;;;28.85;;
16472;SDS011;8347;52.486;13.432;2023-02-11T04:38:17;66.43;;;30.85;;
16472;SDS011;8347;52.486;13.432;2023-02-11T04:41:04;62.65;;;28.55;;
16472;SDS011;8347;52.486;13.432;2023-02-11T04:43:50;61.63;;;30.48;;
16472;SDS011;8347;52.486;13.432;2023-02-11T04:46:37;62.10;;;28.90;;
16472;SDS011;8347;52.486;13.432;2023-02-11T04:49:23;64.45;;;31.83;;
16472;SDS011;8347;52.486;13.432;2023-02-11T04:52:10;53.38;;;29.58;;
16472;SDS011;8347;52.486;13.432;2023-02-11T04:54:56;63.13;;;31.95;;
16472;SDS011;8347;52.486;13.432;2023-02-11T04:57:43;62.72;;;30.85;;
16472;SDS011;8347;52.486;13.432;2023-02-11T05:00:29;63.42;;;31.50;;
16472;SDS011;8347;52.486;13.432;2023-02-11T05:03:16;59.05;;;28.30;;
16472;SDS011;8347;52.486;13.432;2023-02-11T05:06:03;63.50;;;32.35;;
16472;SDS011;8347;52.486;13.432;2023-02-11T05:08:50;63.42;;;28.63;;
16472;SDS011;8347;52.486;13.432;2023-02-11T05:11:36;64.13;;;33.00;;
16472;SDS011;8347;52.486;13.432;2023-02-11T05:14:24;67.50;;;32.70;;
16472;SDS011;8347;52.486;13.432;2023-02-11T05:17:10;63.28;;;30.50;;
16472;SDS011;8347;52.486;13.432;2023-02-11T05:19:56;68.10;;;30.15;;
16472;SDS011;8347;52.486;13.432;2023-02-11T05:22:42;70.00;;;30.10;;
16472;SDS011;8347;52.486;13.432;2023-02-11T05:25:29;58.72;;;29.10;;
16472;SDS011;8347;52.486;13.432;2023-02-11T05:28:15;62.65;;;31.35;;
16472;SDS011;8347;52.486;13.432;2023-02-11T05:31:02;61.92;;;30.80;;
16472;SDS011;8347;52.486;13.432;2023-02-11T05:33:49;64.00;;;32.22;;
16472;SDS011;8347;52.486;13.432;2023-02-11T05:36:35;63.50;;;33.00;;
16472;SDS011;8347;52.486;13.432;2023-02-11T05:39:21;60.03;;;29.65;;
16472;SDS011;8347;52.486;13.432;2023-02-11T05:42:08;71.18;;;32.63;;
16472;SDS011;8347;52.486;13.432;2023-02-11T05:44:55;64.72;;;30.83;;
16472;SDS011;8347;52.486;13.432;2023-02-11T05:47:41;62.35;;;31.17;;
16472;SDS011;8347;52.486;13.432;2023-02-11T05:50:27;62.22;;;30.60;;
16472;SDS011;8347;52.486;13.432;2023-02-11T05:53:14;62.47;;;31.40;;
16472;SDS011;8347;52.486;13.432;2023-02-11T05:56:01;69.65;;;34.88;;
16472;SDS011;8347;52.486;13.432;2023-02-11T05:58:47;62.42;;;32.90;;
16472;SDS011;8347;52.486;13.432;2023-02-11T06:01:34;69.50;;;35.08;;
16472;SDS011;8347;52.486;13.432;2023-02-11T06:04:20;69.95;;;33.03;;
16472;SDS011;8347;52.486;13.432;2023-02-11T06:07:07;69.85;;;32.17;;
16472;SDS011;8347;52.486;13.432;2023-02-11T06:09:54;69.60;;;33.85;;
16472;SDS011;8347;52.486;13.432;2023-02-11T06:12:40;77.97;;;34.70;;
16472;SDS011;8347;52.486;13.432;2023-02-11T06:15:27;69.15;;;34.30;;
16472;SDS011;8347;52.486;13.432;2023-02-11T06:18:13;68.40;;;33.78;;
16472;SDS011;8347;52.486;13.432;2023-02-11T06:21:00;78.28;;;35.63;;
16472;SDS011;8347;52.486;13.432;2023-02-11T06:23:46;77.88;;;34.67;;
16472;SDS011;8347;52.486;13.432;2023-02-11T06:26:33;80.35;;;37.30;;
16472;SDS011;8347;52.486;13.432;2023-02-11T06:29:20;74.82;;;34.05;;
16472;SDS011;8347;52.486;13.432;2023-02-11T06:32:07;75.63;;;35.40;;
16472;SDS011;8347;52.486;13.432;2023-02-11T06:34:53;78.18;;;33.85;;
16472;SDS011;8347;52.486;13.432;2023-02-11T06:37:40;72.13;;;36.03;;
16472;SDS011;8347;52.486;13.432;2023-02-11T06:40:26;72.28;;;33.90;;
16472;SDS011;8347;52.486;13.432;2023-02-11T06:43:13;79.72;;;36.33;;
16472;SDS011;8347;52.486;13.432;2023-02-11T06:46:00;80.82;;;38.20;;
16472;SDS011;8347;52.486;13.432;2023-02-11T06:48:46;82.32;;;38.20;;
16472;SDS011;8347;52.486;13.432;2023-02-11T06:51:33;77.60;;;36.47;;
16472;SDS011;8347;52.486;13.432;2023-02-11T06:54:19;80.65;;;35.50;;
16472;SDS011;8347;52.486;13.432;2023-02-11T06:57:05;78.97;;;35.08;;
16472;SDS011;8347;52.486;13.432;2023-02-11T06:59:52;82.53;;;37.15;;
16472;SDS011;8347;52.486;13.432;2023-02-11T07:02:40;76.75;;;36.33;;
16472;SDS011;8347;52.486;13.432;2023-02-11T07:05:26;78.38;;;36.55;;
16472;SDS011;8347;52.486;13.432;2023-02-11T07:08:13;78.82;;;36.70;;
16472;SDS011;8347;52.486;13.432;2023-02-11T07:10:59;74.35;;;34.75;;
16472;SDS011;8347;52.486;13.432;2023-02-11T07:13:46;79.50;;;36.25;;
16472;SDS011;8347;52.486;13.432;2023-02-11T07:16:33;84.53;;;38.30;;
16472;SDS011;8347;52.486;13.432;2023-02-11T07:19:20;82.18;;;36.28;;
16472;SDS011;8347;52.486;13.432;2023-02-11T07:22:06;80.82;;;36.17;;
16472;SDS011;8347;52.486;13.432;2023-02-11T07:24:53;72.90;;;34.25;;
16472;SDS011;8347;52.486;13.432;2023-02-11T07:27:39;81.63;;;38.55;;
16472;SDS011;8347;52.486;13.432;2023-02-11T07:30:26;87.47;;;39.00;;
16472;SDS011;8347;52.486;13.432;2023-02-11T07:33:12;75.15;;;35.30;;
16472;SDS011;8347;52.486;13.432;2023-02-11T07:35:59;71.43;;;34.75;;
16472;SDS011;8347;52.486;13.432;2023-02-11T07:38:46;76.03;;;36.53;;
16472;SDS011;8347;52.486;13.432;2023-02-11T07:41:32;66.20;;;32.97;;
16472;SDS011;8347;52.486;13.432;2023-02-11T07:44:20;68.75;;;33.65;;
16472;SDS011;8347;52.486;13.432;2023-02-11T07:47:06;79.40;;;34.38;;
16472;SDS011;8347;52.486;13.432;2023-02-11T07:49:53;72.60;;;35.08;;
16472;SDS011;8347;52.486;13.432;2023-02-11T07:52:39;72.32;;;35.65;;
16472;SDS011;8347;52.486;13.432;2023-02-11T07:55:26;80.45;;;36.50;;
16472;SDS011;8347;52.486;13.432;2023-02-11T07:58:12;73.55;;;34.30;;
16472;SDS011;8347;52.486;13.432;2023-02-11T08:01:00;73.22;;;34.00;;
16472;SDS011;8347;52.486;13.432;2023-02-11T08:03:50;76.57;;;36.83;;
16472;SDS011;8347;52.486;13.432;2023-02-11T08:06:39;77.07;;;36.58;;
16472;SDS011;8347;52.486;13.432;2023-02-11T08:09:26;81.32;;;37.28;;
16472;SDS011;8347;52.486;13.432;2023-02-11T08:12:13;69.45;;;35.05;;
16472;SDS011;8347;52.486;13.432;2023-02-11T08:15:00;74.30;;;32.42;;
16472;SDS011;8347;52.486;13.432;2023-02-11T08:17:46;71.90;;;35.40;;
16472;SDS011;8347;52.486;13.432;2023-02-11T08:20:33;85.90;;;35.92;;
16472;SDS011;8347;52.486;13.432;2023-02-11T08:23:19;70.10;;;33.55;;
16472;SDS011;8347;52.486;13.432;2023-02-11T08:26:07;72.90;;;34.47;;
16472;SDS011;8347;52.486;13.432;2023-02-11T08:28:55;66.93;;;32.58;;
16472;SDS011;8347;52.486;13.432;2023-02-11T08:31:43;72.35;;;35.42;;
16472;SDS011;8347;52.486;13.432;2023-02-11T08:34:31;77.82;;;35.08;;
16472;SDS011;8347;52.486;13.432;2023-02-11T08:37:18;74.72;;;33.83;;
16472;SDS011;8347;52.486;13.432;2023-02-11T08:40:05;72.60;;;33.53;;
16472;SDS011;8347;52.486;13.432;2023-02-11T08:42:52;70.50;;;34.22;;
16472;SDS011;8347;52.486;13.432;2023-02-11T08:45:39;66.93;;;33.75;;
16472;SDS011;8347;52.486;13.432;2023-02-11T08:48:25;72.35;;;33.05;;
16472;SDS011;8347;52.486;13.432;2023-02-11T08:51:15;71.20;;;34.67;;
16472;SDS011;8347;52.486;13.432;2023-02-11T08:54:02;77.78;;;33.60;;
16472;SDS011;8347;52.486;13.432;2023-02-11T08:56:49;63.72;;;32.78;;
16472;SDS011;8347;52.486;13.432;2023-02-11T08:59:36;73.82;;;33.45;;
16472;SDS011;8347;52.486;13.432;2023-02-11T09:02:24;62.80;;;31.45;;
16472;SDS011;8347;52.486;13.432;2023-02-11T09:05:11;69.70;;;33.47;;
16472;SDS011;8347;52.486;13.432;2023-02-11T09:07:57;64.78;;;33.70;;
16472;SDS011;8347;52.486;13.432;2023-02-11T09:10:44;63.55;;;33.10;;
16472;SDS011;8347;52.486;13.432;2023-02-11T09:13:31;68.50;;;32.70;;
16472;SDS011;8347;52.486;13.432;2023-02-11T09:16:24;66.78;;;32.55;;
16472;SDS011;8347;52.486;13.432;2023-02-11T09:19:15;54.40;;;30.20;;
16472;SDS011;8347;52.486;13.432;2023-02-11T09:22:01;73.10;;;32.83;;
16472;SDS011;8347;52.486;13.432;2023-02-11T09:24:48;64.47;;;32.78;;
16472;SDS011;8347;52.486;13.432;2023-02-11T09:27:35;73.97;;;33.72;;
16472;SDS011;8347;52.486;13.432;2023-02-11T09:30:21;57.55;;;30.73;;
16472;SDS011;8347;52.486;13.432;2023-02-11T09:33:08;58.95;;;28.88;;
16472;SDS011;8347;52.486;13.432;2023-02-11T09:35:55;69.38;;;31.67;;
16472;SDS011;8347;52.486;13.432;2023-02-11T09:38:44;58.75;;;29.58;;
16472;SDS011;8347;52.486;13.432;2023-02-11T09:44:29;60.83;;;32.50;;
16472;SDS011;8347;52.486;13.432;2023-02-11T09:47:27;64.70;;;30.55;;
16472;SDS011;8347;52.486;13.432;2023-02-11T09:50:21;62.22;;;31.20;;
16472;SDS011;8347;52.486;13.432;2023-02-11T09:55:58;65.15;;;33.03;;
16472;SDS011;8347;52.486;13.432;2023-02-11T09:58:46;67.60;;;33.10;;
16472;SDS011;8347;52.486;13.432;2023-02-11T10:01:38;61.65;;;30.55;;
16472;SDS011;8347;52.486;13.432;2023-02-11T10:04:36;61.17;;;30.02;;
16472;SDS011;8347;52.486;13.432;2023-02-11T10:07:51;60.00;;;30.15;;
16472;SDS011;8347;52.486;13.432;2023-02-11T10:10:52;65.60;;;30.05;;
16472;SDS011;8347;52.486;13.432;2023-02-11T10:17:07;57.45;;;27.17;;
16472;SDS011;8347;52.486;13.432;2023-02-11T10:20:03;57.95;;;29.02;;
16472;SDS011;8347;52.486;13.432;2023-02-11T10:22:54;54.20;;;26.30;;
16472;SDS011;8347;52.486;13.432;2023-02-11T10:25:43;61.42;;;28.35;;
16472;SDS011;8347;52.486;13.432;2023-02-11T10:28:31;60.25;;;31.88;;
16472;SDS011;8347;52.486;13.432;2023-02-11T10:31:23;56.58;;;28.85;;
16472;SDS011;8347;52.486;13.432;2023-02-11T10:34:11;61.13;;;29.48;;
16472;SDS011;8347;52.486;13.432;2023-02-11T10:36:58;61.63;;;29.27;;
16472;SDS011;8347;52.486;13.432;2023-02-11T10:39:45;53.63;;;29.05;;
16472;SDS011;8347;52.486;13.432;2023-02-11T10:42:31;55.45;;;28.98;;
16472;SDS011;8347;52.486;13.432;2023-02-11T10:51:20;57.40;;;28.48;;
16472;SDS011;8347;52.486;13.432;2023-02-11T10:54:15;50.80;;;28.58;;
16472;SDS011;8347;52.486;13.432;2023-02-11T10:57:04;51.00;;;25.90;;
16472;SDS011;8347;52.486;13.432;2023-02-11T10:59:50;52.38;;;27.75;;
16472;SDS011;8347;52.486;13.432;2023-02-11T11:02:42;52.05;;;25.55;;
16472;SDS011;8347;52.486;13.432;2023-02-11T11:05:30;57.17;;;28.88;;
16472;SDS011;8347;52.486;13.432;2023-02-11T11:08:17;53.40;;;28.58;;
16472;SDS011;8347;52.486;13.432;2023-02-11T11:11:08;63.53;;;29.67;;
16472;SDS011;8347;52.486;13.432;2023-02-11T11:13:58;62.28;;;30.08;;
16472;SDS011;8347;52.486;13.432;2023-02-11T11:16:50;52.42;;;29.73;;
16472;SDS011;8347;52.486;13.432;2023-02-11T11:19:42;58.30;;;28.92;;
16472;SDS011;8347;52.486;13.432;2023-02-11T11:22:29;56.30;;;28.10;;
16472;SDS011;8347;52.486;13.432;2023-02-11T11:25:22;58.15;;;28.63;;
16472;SDS011;8347;52.486;13.432;2023-02-11T11:28:17;53.05;;;28.17;;
16472;SDS011;8347;52.486;13.432;2023-02-11T11:31:11;49.45;;;27.23;;
16472;SDS011;8347;52.486;13.432;2023-02-11T11:33:59;52.40;;;26.67;;
16472;SDS011;8347;52.486;13.432;2023-02-11T11:36:46;45.78;;;26.80;;
16472;SDS011;8347;52.486;13.432;2023-02-11T11:39:33;48.08;;;26.33;;
16472;SDS011;8347;52.486;13.432;2023-02-11T11:42:24;53.35;;;28.13;;
16472;SDS011;8347;52.486;13.432;2023-02-11T11:48:26;48.50;;;27.42;;
16472;SDS011;8347;52.486;13.432;2023-02-11T11:51:24;51.00;;;26.15;;
16472;SDS011;8347;52.486;13.432;2023-02-11T11:54:11;51.10;;;26.20;;
16472;SDS011;8347;52.486;13.432;2023-02-11T11:56:59;45.70;;;25.42;;
16472;SDS011;8347;52.486;13.432;2023-02-11T11:59:47;46.40;;;25.27;;
16472;SDS011;8347;52.486;13.432;2023-02-11T12:02:39;48.20;;;25.45;;
16472;SDS011;8347;52.486;13.432;2023-02-11T12:08:47;47.28;;;23.80;;
16472;SDS011;8347;52.486;13.432;2023-02-11T12:17:42;40.42;;;23.33;;
16472;SDS011;8347;52.486;13.432;2023-02-11T12:23:28;46.13;;;23.55;;
16472;SDS011;8347;52.486;13.432;2023-02-11T12:26:21;43.78;;;23.75;;
16472;SDS011;8347;52.486;13.432;2023-02-11T12:29:21;40.92;;;21.55;;
16472;SDS011;8347;52.486;13.432;2023-02-11T12:33:13;49.33;;;24.80;;
16472;SDS011;8347;52.486;13.432;2023-02-11T12:38:38;43.00;;;22.10;;
16472;SDS011;8347;52.486;13.432;2023-02-11T12:48:10;39.72;;;21.10;;
16472;SDS011;8347;52.486;13.432;2023-02-11T12:54:03;45.30;;;21.15;;
16472;SDS011;8347;52.486;13.432;2023-02-11T12:57:02;45.45;;;22.48;;
16472;SDS011;8347;52.486;13.432;2023-02-11T12:59:54;40.10;;;21.55;;
16472;SDS011;8347;52.486;13.432;2023-02-11T13:02:54;49.00;;;22.55;;
16472;SDS011;8347;52.486;13.432;2023-02-11T13:05:47;38.22;;;18.83;;
16472;SDS011;8347;52.486;13.432;2023-02-11T13:08:36;31.98;;;18.92;;
16472;SDS011;8347;52.486;13.432;2023-02-11T13:11:25;37.17;;;21.67;;
16472;SDS011;8347;52.486;13.432;2023-02-11T13:14:27;39.50;;;20.77;;
16472;SDS011;8347;52.486;13.432;2023-02-11T13:17:17;36.47;;;21.33;;
16472;SDS011;8347;52.486;13.432;2023-02-11T13:20:19;42.03;;;20.00;;
16472;SDS011;8347;52.486;13.432;2023-02-11T13:23:22;44.17;;;21.25;;
16472;SDS011;8347;52.486;13.432;2023-02-11T13:26:15;35.58;;;19.42;;
16472;SDS011;8347;52.486;13.432;2023-02-11T13:32:13;40.53;;;22.05;;
16472;SDS011;8347;52.486;13.432;2023-02-11T13:35:00;45.70;;;20.90;;
16472;SDS011;8347;52.486;13.432;2023-02-11T13:37:47;48.00;;;25.08;;
16472;SDS011;8347;52.486;13.432;2023-02-11T13:40:34;38.33;;;21.50;;
16472;SDS011;8347;52.486;13.432;2023-02-11T13:43:22;44.22;;;22.63;;
16472;SDS011;8347;52.486;13.432;2023-02-11T13:46:10;39.83;;;20.67;;
16472;SDS011;8347;52.486;13.432;2023-02-11T13:48:57;40.70;;;20.23;;
16472;SDS011;8347;52.486;13.432;2023-02-11T13:51:44;35.30;;;21.58;;
16472;SDS011;8347;52.486;13.432;2023-02-11T13:54:34;41.65;;;21.02;;
16472;SDS011;8347;52.486;13.432;2023-02-11T13:57:28;39.65;;;21.33;;
16472;SDS011;8347;52.486;13.432;2023-02-11T14:06:28;42.35;;;22.30;;
16472;SDS011;8347;52.486;13.432;2023-02-11T14:09:36;43.40;;;22.48;;
16472;SDS011;8347;52.486;13.432;2023-02-11T14:12:29;38.65;;;19.70;;
16472;SDS011;8347;52.486;13.432;2023-02-11T14:15:17;47.78;;;22.48;;
16472;SDS011;8347;52.486;13.432;2023-02-11T14:18:35;41.28;;;22.40;;
16472;SDS011;8347;52.486;13.432;2023-02-11T14:27:06;40.55;;;21.88;;
16472;SDS011;8347;52.486;13.432;2023-02-11T14:30:19;44.63;;;23.02;;
16472;SDS011;8347;52.486;13.432;2023-02-11T14:39:19;40.75;;;21.80;;
16472;SDS011;8347;52.486;13.432;2023-02-11T14:42:13;47.97;;;23.70;;
16472;SDS011;8347;52.486;13.432;2023-02-11T14:45:05;47.88;;;23.38;;
16472;SDS011;8347;52.486;13.432;2023-02-11T14:47:59;43.55;;;22.42;;
16472;SDS011;8347;52.486;13.432;2023-02-11T14:50:48;38.75;;;21.05;;
16472;SDS011;8347;52.486;13.432;2023-02-11T14:53:36;29.73;;;17.77;;
16472;SDS011;8347;52.486;13.432;2023-02-11T14:56:29;34.85;;;17.33;;
16472;SDS011;8347;52.486;13.432;2023-02-11T14:59:17;33.10;;;18.02;;
16472;SDS011;8347;52.486;13.432;2023-02-11T15:02:23;47.97;;;22.98;;
16472;SDS011;8347;52.486;13.432;2023-02-11T15:05:26;46.72;;;20.73;;
16472;SDS011;8347;52.486;13.432;2023-02-11T15:08:13;29.90;;;15.80;;
16472;SDS011;8347;52.486;13.432;2023-02-11T15:11:01;33.17;;;17.98;;
16472;SDS011;8347;52.486;13.432;2023-02-11T15:13:48;40.83;;;19.73;;
16472;SDS011;8347;52.486;13.432;2023-02-11T15:16:39;42.00;;;22.85;;
16472;SDS011;8347;52.486;13.432;2023-02-11T15:19:32;47.97;;;23.90;;
16472;SDS011;8347;52.486;13.432;2023-02-11T15:22:23;31.88;;;18.23;;
16472;SDS011;8347;52.486;13.432;2023-02-11T15:25:12;42.58;;;19.88;;
16472;SDS011;8347;52.486;13.432;2023-02-11T15:28:09;30.85;;;16.33;;
16472;SDS011;8347;52.486;13.432;2023-02-11T15:31:00;22.83;;;13.63;;
16472;SDS011;8347;52.486;13.432;2023-02-11T15:33:47;26.63;;;14.55;;
16472;SDS011;8347;52.486;13.432;2023-02-11T15:36:34;25.42;;;14.65;;
16472;SDS011;8347;52.486;13.432;2023-02-11T15:39:31;30.70;;;14.95;;
16472;SDS011;8347;52.486;13.432;2023-02-11T15:48:04;24.40;;;14.80;;
16472;SDS011;8347;52.486;13.432;2023-02-11T15:51:11;27.40;;;15.60;;
16472;SDS011;8347;52.486;13.432;2023-02-11T15:53:59;23.90;;;14.30;;
16472;SDS011;8347;52.486;13.432;2023-02-11T15:56:49;22.17;;;13.13;;
16472;SDS011;8347;52.486;13.432;2023-02-11T15:59:37;22.63;;;13.00;;
16472;SDS011;8347;52.486;13.432;2023-02-11T16:02:28;22.95;;;12.27;;
16472;SDS011;8347;52.486;13.432;2023-02-11T16:05:24;24.35;;;13.40;;
16472;SDS011;8347;52.486;13.432;2023-02-11T16:08:24;21.48;;;12.85;;
16472;SDS011;8347;52.486;13.432;2023-02-11T16:11:17;23.05;;;13.57;;
16472;SDS011;8347;52.486;13.432;2023-02-11T16:14:21;23.20;;;13.50;;
16472;SDS011;8347;52.486;13.432;2023-02-11T16:17:12;21.58;;;14.52;;
16472;SDS011;8347;52.486;13.432;2023-02-11T16:20:16;24.95;;;15.52;;
16472;SDS011;8347;52.486;13.432;2023-02-11T16:23:03;23.80;;;15.77;;
16472;SDS011;8347;52.486;13.432;2023-02-11T16:25:54;26.15;;;17.23;;
16472;SDS011;8347;52.486;13.432;2023-02-11T16:28:44;24.48;;;17.10;;
16472;SDS011;8347;52.486;13.432;2023-02-11T16:31:31;33.65;;;19.98;;
16472;SDS011;8347;52.486;13.432;2023-02-11T16:34:19;31.90;;;19.20;;
16472;SDS011;8347;52.486;13.432;2023-02-11T16:37:07;40.03;;;20.50;;
16472;SDS011;8347;52.486;13.432;2023-02-11T16:39:54;25.65;;;16.25;;
16472;SDS011;8347;52.486;13.432;2023-02-11T16:42:40;27.92;;;17.92;;
16472;SDS011;8347;52.486;13.432;2023-02-11T16:45:27;25.42;;;16.38;;
16472;SDS011;8347;52.486;13.432;2023-02-11T16:48:15;22.38;;;15.90;;
16472;SDS011;8347;52.486;13.432;2023-02-11T16:51:04;21.30;;;14.68;;
16472;SDS011;8347;52.486;13.432;2023-02-11T16:53:53;20.17;;;13.98;;
16472;SDS011;8347;52.486;13.432;2023-02-11T16:56:40;20.88;;;13.43;;
16472;SDS011;8347;52.486;13.432;2023-02-11T16:59:26;17.17;;;12.25;;
16472;SDS011;8347;52.486;13.432;2023-02-11T17:02:24;17.90;;;13.02;;
16472;SDS011;8347;52.486;13.432;2023-02-11T17:05:15;20.45;;;12.63;;
16472;SDS011;8347;52.486;13.432;2023-02-11T17:08:04;21.98;;;12.80;;
16472;SDS011;8347;52.486;13.432;2023-02-11T17:10:51;21.58;;;15.05;;
16472;SDS011;8347;52.486;13.432;2023-02-11T17:13:38;25.83;;;14.85;;
16472;SDS011;8347;52.486;13.432;2023-02-11T17:16:26;23.70;;;14.35;;
16472;SDS011;8347;52.486;13.432;2023-02-11T17:19:15;28.05;;;16.23;;
16472;SDS011;8347;52.486;13.432;2023-02-11T17:22:03;25.23;;;15.23;;
16472;SDS011;8347;52.486;13.432;2023-02-11T17:24:49;24.30;;;15.10;;
16472;SDS011;8347;52.486;13.432;2023-02-11T17:27:36;21.20;;;13.73;;
16472;SDS011;8347;52.486;13.432;2023-02-11T17:30:22;23.52;;;15.10;;
16472;SDS011;8347;52.486;13.432;2023-02-11T17:33:09;26.75;;;14.80;;
16472;SDS011;8347;52.486;13.432;2023-02-11T17:35:56;25.73;;;14.40;;
16472;SDS011;8347;52.486;13.432;2023-02-11T17:38:43;17.90;;;11.35;;
16472;SDS011;8347;52.486;13.432;2023-02-11T17:41:29;17.70;;;11.40;;
16472;SDS011;8347;52.486;13.432;2023-02-11T17:44:16;24.15;;;13.93;;
16472;SDS011;8347;52.486;13.432;2023-02-11T17:47:03;22.95;;;12.95;;
16472;SDS011;8347;52.486;13.432;2023-02-11T17:49:49;19.35;;;12.93;;
16472;SDS011;8347;52.486;13.432;2023-02-11T17:52:35;21.60;;;13.13;;
16472;SDS011;8347;52.486;13.432;2023-02-11T17:55:22;25.15;;;13.95;;
16472;SDS011;8347;52.486;13.432;2023-02-11T17:58:09;17.63;;;11.27;;
16472;SDS011;8347;52.486;13.432;2023-02-11T18:00:56;18.95;;;11.60;;